sensor_id;sensor_type;location;lat;lon;timestamp;P1;P2;P0
64631;PMS5003;58358;50.936;0.246;2023-04-03T00:01:35;3;2;
64631;PMS5003;58358;50.936;0.246;2023-04-03T00:04:00;2;2;
64631;PMS5003;58358;50.936;0.246;2023-04-03T00:06:25;1;1;
64631;PMS5003;58358;50.936;0.246;2023-04-03T00:08:50;1;1;
64631;PMS5003;58358;50.936;0.246;2023-04-03T00:11:15;1;1;
64631;PMS5003;58358;50.936;0.246;2023-04-03T00:13:40;4;2;
64631;PMS5003;58358;50.936;0.246;2023-04-03T00:16:06;2;2;
64631;PMS5003;58358;50.936;0.246;2023-04-03T00:18:30;1;1;
64631;PMS5003;58358;50.936;0.246;2023-04-03T00:20:55;1;1;
64631;PMS5003;58358;50.936;0.246;2023-04-03T00:23:20;5;3;
64631;PMS5003;58358;50.936;0.246;2023-04-03T00:25:45;3;2;
64631;PMS5003;58358;50.936;0.246;2023-04-03T00:28:10;2;2;
64631;PMS5003;58358;50.936;0.246;2023-04-03T00:30:35;1;1;
64631;PMS5003;58358;50.936;0.246;2023-04-03T00:33:00;2;2;
64631;PMS5003;58358;50.936;0.246;2023-04-03T00:35:26;3;1;
64631;PMS5003;58358;50.936;0.246;2023-04-03T00:37:51;2;1;
64631;PMS5003;58358;50.936;0.246;2023-04-03T00:40:16;1;1;
64631;PMS5003;58358;50.936;0.246;2023-04-03T00:42:41;2;2;
64631;PMS5003;58358;50.936;0.246;2023-04-03T00:47:30;2;2;
64631;PMS5003;58358;50.936;0.246;2023-04-03T00:49:56;1;1;
64631;PMS5003;58358;50.936;0.246;2023-04-03T00:52:21;2;1;
64631;PMS5003;58358;50.936;0.246;2023-04-03T00:54:46;2;1;
64631;PMS5003;58358;50.936;0.246;2023-04-03T00:57:11;2;1;
64631;PMS5003;58358;50.936;0.246;2023-04-03T00:59:37;1;1;
64631;PMS5003;58358;50.936;0.246;2023-04-03T01:02:01;1;1;
64631;PMS5003;58358;50.936;0.246;2023-04-03T01:04:27;2;2;
64631;PMS5003;58358;50.936;0.246;2023-04-03T01:06:51;3;1;
64631;PMS5003;58358;50.936;0.246;2023-04-03T01:09:16;3;1;
64631;PMS5003;58358;50.936;0.246;2023-04-03T01:11:41;2;2;
64631;PMS5003;58358;50.936;0.246;2023-04-03T01:14:06;1;1;
64631;PMS5003;58358;50.936;0.246;2023-04-03T01:16:31;2;1;
64631;PMS5003;58358;50.936;0.246;2023-04-03T01:18:56;3;3;
64631;PMS5003;58358;50.936;0.246;2023-04-03T01:21:27;3;2;
64631;PMS5003;58358;50.936;0.246;2023-04-03T01:23:51;1;1;
64631;PMS5003;58358;50.936;0.246;2023-04-03T01:26:11;1;1;
64631;PMS5003;58358;50.936;0.246;2023-04-03T01:28:36;2;2;
64631;PMS5003;58358;50.936;0.246;2023-04-03T01:31:03;1;1;
64631;PMS5003;58358;50.936;0.246;2023-04-03T01:33:26;1;1;
64631;PMS5003;58358;50.936;0.246;2023-04-03T01:35:51;4;3;
64631;PMS5003;58358;50.936;0.246;2023-04-03T01:38:16;2;1;
64631;PMS5003;58358;50.936;0.246;2023-04-03T01:40:42;2;2;
64631;PMS5003;58358;50.936;0.246;2023-04-03T01:43:07;2;2;
64631;PMS5003;58358;50.936;0.246;2023-04-03T01:45:32;4;2;
64631;PMS5003;58358;50.936;0.246;2023-04-03T01:47:57;1;1;
64631;PMS5003;58358;50.936;0.246;2023-04-03T01:50:22;3;3;
64631;PMS5003;58358;50.936;0.246;2023-04-03T01:52:47;2;2;
64631;PMS5003;58358;50.936;0.246;2023-04-03T01:55:12;1;1;
64631;PMS5003;58358;50.936;0.246;2023-04-03T01:57:37;2;2;
64631;PMS5003;58358;50.936;0.246;2023-04-03T02:00:02;2;1;
64631;PMS5003;58358;50.936;0.246;2023-04-03T02:02:27;3;3;
64631;PMS5003;58358;50.936;0.246;2023-04-03T02:04:52;2;2;
64631;PMS5003;58358;50.936;0.246;2023-04-03T02:07:18;3;3;
64631;PMS5003;58358;50.936;0.246;2023-04-03T02:09:43;4;4;
64631;PMS5003;58358;50.936;0.246;2023-04-03T02:12:08;3;3;
64631;PMS5003;58358;50.936;0.246;2023-04-03T02:14:33;2;2;
64631;PMS5003;58358;50.936;0.246;2023-04-03T02:17:00;3;3;
64631;PMS5003;58358;50.936;0.246;2023-04-03T02:19:24;4;2;
64631;PMS5003;58358;50.936;0.246;2023-04-03T02:21:49;6;4;
64631;PMS5003;58358;50.936;0.246;2023-04-03T02:24:14;4;3;
64631;PMS5003;58358;50.936;0.246;2023-04-03T02:26:39;7;3;
64631;PMS5003;58358;50.936;0.246;2023-04-03T02:29:04;3;3;
64631;PMS5003;58358;50.936;0.246;2023-04-03T02:31:29;2;2;
64631;PMS5003;58358;50.936;0.246;2023-04-03T02:33:54;2;2;
64631;PMS5003;58358;50.936;0.246;2023-04-03T02:36:19;2;2;
64631;PMS5003;58358;50.936;0.246;2023-04-03T02:38:44;4;2;
64631;PMS5003;58358;50.936;0.246;2023-04-03T02:41:15;4;4;
64631;PMS5003;58358;50.936;0.246;2023-04-03T02:43:34;7;5;
64631;PMS5003;58358;50.936;0.246;2023-04-03T02:45:59;7;3;
64631;PMS5003;58358;50.936;0.246;2023-04-03T02:48:25;4;4;
64631;PMS5003;58358;50.936;0.246;2023-04-03T02:50:50;3;3;
64631;PMS5003;58358;50.936;0.246;2023-04-03T02:53:15;6;6;
64631;PMS5003;58358;50.936;0.246;2023-04-03T02:55:40;4;3;
64631;PMS5003;58358;50.936;0.246;2023-04-03T02:58:05;3;3;
64631;PMS5003;58358;50.936;0.246;2023-04-03T03:00:30;4;4;
64631;PMS5003;58358;50.936;0.246;2023-04-03T03:02:55;7;7;
64631;PMS5003;58358;50.936;0.246;2023-04-03T03:05:21;6;6;
64631;PMS5003;58358;50.936;0.246;2023-04-03T03:07:46;4;4;
64631;PMS5003;58358;50.936;0.246;2023-04-03T03:10:11;4;4;
64631;PMS5003;58358;50.936;0.246;2023-04-03T03:12:36;7;6;
64631;PMS5003;58358;50.936;0.246;2023-04-03T03:15:02;6;6;
64631;PMS5003;58358;50.936;0.246;2023-04-03T03:17:27;3;3;
64631;PMS5003;58358;50.936;0.246;2023-04-03T03:19:52;9;8;
64631;PMS5003;58358;50.936;0.246;2023-04-03T03:22:17;4;4;
64631;PMS5003;58358;50.936;0.246;2023-04-03T03:24:42;4;4;
64631;PMS5003;58358;50.936;0.246;2023-04-03T03:27:07;7;7;
64631;PMS5003;58358;50.936;0.246;2023-04-03T03:29:32;6;6;
64631;PMS5003;58358;50.936;0.246;2023-04-03T03:31:58;4;4;
64631;PMS5003;58358;50.936;0.246;2023-04-03T03:34:23;6;6;
64631;PMS5003;58358;50.936;0.246;2023-04-03T03:36:48;6;6;
64631;PMS5003;58358;50.936;0.246;2023-04-03T03:39:13;6;4;
64631;PMS5003;58358;50.936;0.246;2023-04-03T03:41:39;7;7;
64631;PMS5003;58358;50.936;0.246;2023-04-03T03:44:04;12;8;
64631;PMS5003;58358;50.936;0.246;2023-04-03T03:46:29;7;7;
64631;PMS5003;58358;50.936;0.246;2023-04-03T03:48:55;4;4;
64631;PMS5003;58358;50.936;0.246;2023-04-03T03:51:20;7;7;
64631;PMS5003;58358;50.936;0.246;2023-04-03T03:53:45;6;6;
64631;PMS5003;58358;50.936;0.246;2023-04-03T03:56:10;10;10;
64631;PMS5003;58358;50.936;0.246;2023-04-03T03:58:35;9;6;
64631;PMS5003;58358;50.936;0.246;2023-04-03T04:01:01;4;3;
64631;PMS5003;58358;50.936;0.246;2023-04-03T04:03:26;9;6;
64631;PMS5003;58358;50.936;0.246;2023-04-03T04:05:51;8;7;
64631;PMS5003;58358;50.936;0.246;2023-04-03T04:08:17;8;8;
64631;PMS5003;58358;50.936;0.246;2023-04-03T04:10:42;7;7;
64631;PMS5003;58358;50.936;0.246;2023-04-03T04:13:08;12;8;
64631;PMS5003;58358;50.936;0.246;2023-04-03T04:15:33;12;9;
64631;PMS5003;58358;50.936;0.246;2023-04-03T04:17:58;10;8;
64631;PMS5003;58358;50.936;0.246;2023-04-03T04:20:24;9;7;
64631;PMS5003;58358;50.936;0.246;2023-04-03T04:22:49;7;6;
64631;PMS5003;58358;50.936;0.246;2023-04-03T04:25:14;8;7;
64631;PMS5003;58358;50.936;0.246;2023-04-03T04:27:39;7;7;
64631;PMS5003;58358;50.936;0.246;2023-04-03T04:30:05;11;9;
64631;PMS5003;58358;50.936;0.246;2023-04-03T04:32:31;9;7;
64631;PMS5003;58358;50.936;0.246;2023-04-03T04:34:56;9;7;
64631;PMS5003;58358;50.936;0.246;2023-04-03T04:37:21;12;9;
64631;PMS5003;58358;50.936;0.246;2023-04-03T04:39:46;12;8;
64631;PMS5003;58358;50.936;0.246;2023-04-03T04:42:11;10;7;
64631;PMS5003;58358;50.936;0.246;2023-04-03T04:44:36;8;8;
64631;PMS5003;58358;50.936;0.246;2023-04-03T04:47:01;7;7;
64631;PMS5003;58358;50.936;0.246;2023-04-03T04:49:26;7;7;
64631;PMS5003;58358;50.936;0.246;2023-04-03T04:51:52;10;7;
64631;PMS5003;58358;50.936;0.246;2023-04-03T04:54:17;9;8;
64631;PMS5003;58358;50.936;0.246;2023-04-03T04:56:42;9;7;
64631;PMS5003;58358;50.936;0.246;2023-04-03T04:59:07;14;8;
64631;PMS5003;58358;50.936;0.246;2023-04-03T05:01:32;8;8;
64631;PMS5003;58358;50.936;0.246;2023-04-03T05:03:57;6;6;
64631;PMS5003;58358;50.936;0.246;2023-04-03T05:06:22;7;7;
64631;PMS5003;58358;50.936;0.246;2023-04-03T05:08:48;10;8;
64631;PMS5003;58358;50.936;0.246;2023-04-03T05:11:13;13;9;
64631;PMS5003;58358;50.936;0.246;2023-04-03T05:13:38;13;13;
64631;PMS5003;58358;50.936;0.246;2023-04-03T05:16:04;11;9;
64631;PMS5003;58358;50.936;0.246;2023-04-03T05:18:28;8;8;
64631;PMS5003;58358;50.936;0.246;2023-04-03T05:20:53;12;12;
64631;PMS5003;58358;50.936;0.246;2023-04-03T05:23:19;11;11;
64631;PMS5003;58358;50.936;0.246;2023-04-03T05:25:44;11;11;
64631;PMS5003;58358;50.936;0.246;2023-04-03T05:28:09;11;10;
64631;PMS5003;58358;50.936;0.246;2023-04-03T05:30:34;10;8;
64631;PMS5003;58358;50.936;0.246;2023-04-03T05:33:04;10;10;
64631;PMS5003;58358;50.936;0.246;2023-04-03T05:35:24;10;8;
64631;PMS5003;58358;50.936;0.246;2023-04-03T05:37:49;13;13;
64631;PMS5003;58358;50.936;0.246;2023-04-03T05:40:14;8;8;
64631;PMS5003;58358;50.936;0.246;2023-04-03T05:42:39;9;9;
64631;PMS5003;58358;50.936;0.246;2023-04-03T05:45:06;14;10;
64631;PMS5003;58358;50.936;0.246;2023-04-03T05:47:30;11;9;
64631;PMS5003;58358;50.936;0.246;2023-04-03T05:49:55;10;8;
64631;PMS5003;58358;50.936;0.246;2023-04-03T05:52:21;10;9;
64631;PMS5003;58358;50.936;0.246;2023-04-03T05:54:45;10;10;
64631;PMS5003;58358;50.936;0.246;2023-04-03T05:57:10;11;11;
64631;PMS5003;58358;50.936;0.246;2023-04-03T05:59:36;13;10;
64631;PMS5003;58358;50.936;0.246;2023-04-03T06:02:01;10;10;
64631;PMS5003;58358;50.936;0.246;2023-04-03T06:04:26;9;9;
64631;PMS5003;58358;50.936;0.246;2023-04-03T06:06:52;10;9;
64631;PMS5003;58358;50.936;0.246;2023-04-03T06:09:16;12;12;
64631;PMS5003;58358;50.936;0.246;2023-04-03T06:11:42;8;8;
64631;PMS5003;58358;50.936;0.246;2023-04-03T06:14:07;11;8;
64631;PMS5003;58358;50.936;0.246;2023-04-03T06:16:32;10;9;
64631;PMS5003;58358;50.936;0.246;2023-04-03T06:18:57;16;12;
64631;PMS5003;58358;50.936;0.246;2023-04-03T06:21:22;7;7;
64631;PMS5003;58358;50.936;0.246;2023-04-03T06:23:48;13;11;
64631;PMS5003;58358;50.936;0.246;2023-04-03T06:26:13;11;9;
64631;PMS5003;58358;50.936;0.246;2023-04-03T06:28:38;13;10;
64631;PMS5003;58358;50.936;0.246;2023-04-03T06:31:03;11;10;
64631;PMS5003;58358;50.936;0.246;2023-04-03T06:33:28;9;9;
64631;PMS5003;58358;50.936;0.246;2023-04-03T06:35:55;13;12;
64631;PMS5003;58358;50.936;0.246;2023-04-03T06:38:19;14;11;
64631;PMS5003;58358;50.936;0.246;2023-04-03T06:40:45;12;12;
64631;PMS5003;58358;50.936;0.246;2023-04-03T06:43:11;10;10;
64631;PMS5003;58358;50.936;0.246;2023-04-03T06:45:37;16;16;
64631;PMS5003;58358;50.936;0.246;2023-04-03T06:48:02;10;9;
64631;PMS5003;58358;50.936;0.246;2023-04-03T06:50:27;12;10;
64631;PMS5003;58358;50.936;0.246;2023-04-03T06:52:53;11;10;
64631;PMS5003;58358;50.936;0.246;2023-04-03T06:55:19;11;10;
64631;PMS5003;58358;50.936;0.246;2023-04-03T06:57:45;10;10;
64631;PMS5003;58358;50.936;0.246;2023-04-03T07:00:11;13;10;
64631;PMS5003;58358;50.936;0.246;2023-04-03T07:02:35;16;15;
64631;PMS5003;58358;50.936;0.246;2023-04-03T07:05:00;13;13;
64631;PMS5003;58358;50.936;0.246;2023-04-03T07:07:26;14;11;
64631;PMS5003;58358;50.936;0.246;2023-04-03T07:09:52;13;13;
64631;PMS5003;58358;50.936;0.246;2023-04-03T07:12:17;14;13;
64631;PMS5003;58358;50.936;0.246;2023-04-03T07:14:44;14;11;
64631;PMS5003;58358;50.936;0.246;2023-04-03T07:17:09;19;18;
64631;PMS5003;58358;50.936;0.246;2023-04-03T07:19:34;14;14;
64631;PMS5003;58358;50.936;0.246;2023-04-03T07:22:00;14;12;
64631;PMS5003;58358;50.936;0.246;2023-04-03T07:24:25;15;15;
64631;PMS5003;58358;50.936;0.246;2023-04-03T07:26:52;15;13;
64631;PMS5003;58358;50.936;0.246;2023-04-03T07:29:16;14;13;
64631;PMS5003;58358;50.936;0.246;2023-04-03T07:31:42;17;15;
64631;PMS5003;58358;50.936;0.246;2023-04-03T07:34:08;16;14;
64631;PMS5003;58358;50.936;0.246;2023-04-03T07:36:33;16;13;
64631;PMS5003;58358;50.936;0.246;2023-04-03T07:38:59;11;11;
64631;PMS5003;58358;50.936;0.246;2023-04-03T07:41:24;14;13;
64631;PMS5003;58358;50.936;0.246;2023-04-03T07:43:50;14;14;
64631;PMS5003;58358;50.936;0.246;2023-04-03T07:46:15;15;15;
64631;PMS5003;58358;50.936;0.246;2023-04-03T07:48:41;13;12;
64631;PMS5003;58358;50.936;0.246;2023-04-03T07:51:07;16;14;
64631;PMS5003;58358;50.936;0.246;2023-04-03T07:53:38;11;11;
64631;PMS5003;58358;50.936;0.246;2023-04-03T07:55:58;13;13;
64631;PMS5003;58358;50.936;0.246;2023-04-03T07:58:24;9;9;
64631;PMS5003;58358;50.936;0.246;2023-04-03T08:00:50;12;12;
64631;PMS5003;58358;50.936;0.246;2023-04-03T08:03:15;12;12;
64631;PMS5003;58358;50.936;0.246;2023-04-03T08:05:41;12;11;
64631;PMS5003;58358;50.936;0.246;2023-04-03T08:08:07;13;13;
64631;PMS5003;58358;50.936;0.246;2023-04-03T08:10:31;14;13;
64631;PMS5003;58358;50.936;0.246;2023-04-03T08:12:56;13;11;
64631;PMS5003;58358;50.936;0.246;2023-04-03T08:15:22;17;16;
64631;PMS5003;58358;50.936;0.246;2023-04-03T08:17:48;16;14;
64631;PMS5003;58358;50.936;0.246;2023-04-03T08:20:14;15;13;
64631;PMS5003;58358;50.936;0.246;2023-04-03T08:22:39;13;11;
64631;PMS5003;58358;50.936;0.246;2023-04-03T08:25:05;13;10;
64631;PMS5003;58358;50.936;0.246;2023-04-03T08:27:31;12;11;
64631;PMS5003;58358;50.936;0.246;2023-04-03T08:29:56;16;13;
64631;PMS5003;58358;50.936;0.246;2023-04-03T08:32:22;13;13;
64631;PMS5003;58358;50.936;0.246;2023-04-03T08:34:47;9;9;
64631;PMS5003;58358;50.936;0.246;2023-04-03T08:37:13;13;13;
64631;PMS5003;58358;50.936;0.246;2023-04-03T08:39:39;19;16;
64631;PMS5003;58358;50.936;0.246;2023-04-03T08:42:05;18;17;
64631;PMS5003;58358;50.936;0.246;2023-04-03T08:44:33;14;13;
64631;PMS5003;58358;50.936;0.246;2023-04-03T08:47:00;14;13;
64631;PMS5003;58358;50.936;0.246;2023-04-03T08:49:23;15;15;
64631;PMS5003;58358;50.936;0.246;2023-04-03T08:51:48;16;15;
64631;PMS5003;58358;50.936;0.246;2023-04-03T08:54:15;18;18;
64631;PMS5003;58358;50.936;0.246;2023-04-03T08:56:38;20;19;
64631;PMS5003;58358;50.936;0.246;2023-04-03T08:59:05;16;14;
64631;PMS5003;58358;50.936;0.246;2023-04-03T09:01:33;22;20;
64631;PMS5003;58358;50.936;0.246;2023-04-03T09:03:55;20;17;
64631;PMS5003;58358;50.936;0.246;2023-04-03T09:06:21;22;22;
64631;PMS5003;58358;50.936;0.246;2023-04-03T09:08:48;19;19;
64631;PMS5003;58358;50.936;0.246;2023-04-03T09:11:13;26;24;
64631;PMS5003;58358;50.936;0.246;2023-04-03T09:13:39;28;22;
64631;PMS5003;58358;50.936;0.246;2023-04-03T09:16:02;25;23;
64631;PMS5003;58358;50.936;0.246;2023-04-03T09:18:28;28;25;
64631;PMS5003;58358;50.936;0.246;2023-04-03T09:20:55;24;24;
64631;PMS5003;58358;50.936;0.246;2023-04-03T09:23:21;28;25;
64631;PMS5003;58358;50.936;0.246;2023-04-03T09:25:45;28;25;
64631;PMS5003;58358;50.936;0.246;2023-04-03T09:28:10;26;26;
64631;PMS5003;58358;50.936;0.246;2023-04-03T09:30:36;24;23;
64631;PMS5003;58358;50.936;0.246;2023-04-03T09:33:01;30;23;
64631;PMS5003;58358;50.936;0.246;2023-04-03T09:35:27;23;22;
64631;PMS5003;58358;50.936;0.246;2023-04-03T09:37:52;28;28;
64631;PMS5003;58358;50.936;0.246;2023-04-03T09:42:43;29;29;
64631;PMS5003;58358;50.936;0.246;2023-04-03T09:45:18;26;26;
64631;PMS5003;58358;50.936;0.246;2023-04-03T09:47:34;26;24;
64631;PMS5003;58358;50.936;0.246;2023-04-03T09:52:25;22;19;
64631;PMS5003;58358;50.936;0.246;2023-04-03T09:54:50;25;22;
64631;PMS5003;58358;50.936;0.246;2023-04-03T09:57:16;24;24;
64631;PMS5003;58358;50.936;0.246;2023-04-03T09:59:44;23;22;
64631;PMS5003;58358;50.936;0.246;2023-04-03T10:04:37;26;26;
64631;PMS5003;58358;50.936;0.246;2023-04-03T10:06:58;31;28;
64631;PMS5003;58358;50.936;0.246;2023-04-03T10:09:24;26;24;
64631;PMS5003;58358;50.936;0.246;2023-04-03T10:11:58;30;24;
64631;PMS5003;58358;50.936;0.246;2023-04-03T10:14:16;25;23;
64631;PMS5003;58358;50.936;0.246;2023-04-03T10:16:41;21;21;
64631;PMS5003;58358;50.936;0.246;2023-04-03T10:19:14;22;21;
64631;PMS5003;58358;50.936;0.246;2023-04-03T10:21:33;16;15;
64631;PMS5003;58358;50.936;0.246;2023-04-03T10:23:58;18;17;
64631;PMS5003;58358;50.936;0.246;2023-04-03T10:26:26;14;13;
64631;PMS5003;58358;50.936;0.246;2023-04-03T10:28:48;13;13;
64631;PMS5003;58358;50.936;0.246;2023-04-03T10:31:14;14;13;
64631;PMS5003;58358;50.936;0.246;2023-04-03T10:33:44;12;12;
64631;PMS5003;58358;50.936;0.246;2023-04-03T10:36:07;8;8;
64631;PMS5003;58358;50.936;0.246;2023-04-03T10:38:33;11;10;
64631;PMS5003;58358;50.936;0.246;2023-04-03T10:40:57;9;9;
64631;PMS5003;58358;50.936;0.246;2023-04-03T10:43:24;12;11;
64631;PMS5003;58358;50.936;0.246;2023-04-03T10:45:50;12;12;
64631;PMS5003;58358;50.936;0.246;2023-04-03T10:48:14;12;12;
64631;PMS5003;58358;50.936;0.246;2023-04-03T10:50:41;12;12;
64631;PMS5003;58358;50.936;0.246;2023-04-03T10:53:06;19;16;
64631;PMS5003;58358;50.936;0.246;2023-04-03T10:55:32;12;12;
64631;PMS5003;58358;50.936;0.246;2023-04-03T10:57:55;13;11;
64631;PMS5003;58358;50.936;0.246;2023-04-03T11:00:21;13;13;
64631;PMS5003;58358;50.936;0.246;2023-04-03T11:02:48;13;13;
64631;PMS5003;58358;50.936;0.246;2023-04-03T11:05:14;16;13;
64631;PMS5003;58358;50.936;0.246;2023-04-03T11:07:38;14;12;
64631;PMS5003;58358;50.936;0.246;2023-04-03T11:10:03;16;16;
64631;PMS5003;58358;50.936;0.246;2023-04-03T11:12:29;11;11;
64631;PMS5003;58358;50.936;0.246;2023-04-03T11:14:55;10;10;
64631;PMS5003;58358;50.936;0.246;2023-04-03T11:17:22;13;11;
64631;PMS5003;58358;50.936;0.246;2023-04-03T11:19:47;16;15;
64631;PMS5003;58358;50.936;0.246;2023-04-03T11:22:14;12;12;
64631;PMS5003;58358;50.936;0.246;2023-04-03T11:24:38;12;12;
64631;PMS5003;58358;50.936;0.246;2023-04-03T11:27:03;12;12;
64631;PMS5003;58358;50.936;0.246;2023-04-03T11:29:29;10;10;
64631;PMS5003;58358;50.936;0.246;2023-04-03T11:32:02;11;9;
64631;PMS5003;58358;50.936;0.246;2023-04-03T11:34:24;9;7;
64631;PMS5003;58358;50.936;0.246;2023-04-03T11:36:47;9;9;
64631;PMS5003;58358;50.936;0.246;2023-04-03T11:39:16;7;7;
64631;PMS5003;58358;50.936;0.246;2023-04-03T11:41:38;9;9;
64631;PMS5003;58358;50.936;0.246;2023-04-03T11:44:05;7;7;
64631;PMS5003;58358;50.936;0.246;2023-04-03T11:48:55;8;6;
64631;PMS5003;58358;50.936;0.246;2023-04-03T11:53:47;7;7;
64631;PMS5003;58358;50.936;0.246;2023-04-03T11:58:38;5;5;
64631;PMS5003;58358;50.936;0.246;2023-04-03T12:01:05;7;7;
64631;PMS5003;58358;50.936;0.246;2023-04-03T12:03:32;5;5;
64631;PMS5003;58358;50.936;0.246;2023-04-03T12:05:56;5;5;
64631;PMS5003;58358;50.936;0.246;2023-04-03T12:08:24;4;4;
64631;PMS5003;58358;50.936;0.246;2023-04-03T12:13:13;6;6;
64631;PMS5003;58358;50.936;0.246;2023-04-03T12:15:44;5;4;
64631;PMS5003;58358;50.936;0.246;2023-04-03T12:27:46;9;9;
64631;PMS5003;58358;50.936;0.246;2023-04-03T12:30:15;7;7;
64631;PMS5003;58358;50.936;0.246;2023-04-03T12:32:47;6;6;
64631;PMS5003;58358;50.936;0.246;2023-04-03T12:35:08;7;6;
64631;PMS5003;58358;50.936;0.246;2023-04-03T12:39:59;7;7;
64631;PMS5003;58358;50.936;0.246;2023-04-03T12:42:24;6;6;
64631;PMS5003;58358;50.936;0.246;2023-04-03T12:44:49;7;7;
64631;PMS5003;58358;50.936;0.246;2023-04-03T12:47:22;6;6;
64631;PMS5003;58358;50.936;0.246;2023-04-03T12:49:39;11;10;
64631;PMS5003;58358;50.936;0.246;2023-04-03T12:52:04;8;8;
64631;PMS5003;58358;50.936;0.246;2023-04-03T12:54:30;7;7;
64631;PMS5003;58358;50.936;0.246;2023-04-03T12:59:22;8;7;
64631;PMS5003;58358;50.936;0.246;2023-04-03T13:04:13;7;7;
64631;PMS5003;58358;50.936;0.246;2023-04-03T13:06:39;8;7;
64631;PMS5003;58358;50.936;0.246;2023-04-03T13:09:06;9;7;
64631;PMS5003;58358;50.936;0.246;2023-04-03T13:11:32;10;9;
64631;PMS5003;58358;50.936;0.246;2023-04-03T13:13:57;8;6;
64631;PMS5003;58358;50.936;0.246;2023-04-03T13:16:22;8;7;
64631;PMS5003;58358;50.936;0.246;2023-04-03T13:18:50;9;6;
64631;PMS5003;58358;50.936;0.246;2023-04-03T13:21:14;8;7;
64631;PMS5003;58358;50.936;0.246;2023-04-03T13:23:40;5;5;
64631;PMS5003;58358;50.936;0.246;2023-04-03T13:26:05;5;5;
64631;PMS5003;58358;50.936;0.246;2023-04-03T13:28:31;7;7;
64631;PMS5003;58358;50.936;0.246;2023-04-03T13:30:59;7;7;
64631;PMS5003;58358;50.936;0.246;2023-04-03T13:33:23;6;5;
64631;PMS5003;58358;50.936;0.246;2023-04-03T13:35:48;7;7;
64631;PMS5003;58358;50.936;0.246;2023-04-03T13:43:06;10;9;
64631;PMS5003;58358;50.936;0.246;2023-04-03T13:45:32;6;6;
64631;PMS5003;58358;50.936;0.246;2023-04-03T13:50:23;9;9;
64631;PMS5003;58358;50.936;0.246;2023-04-03T13:52:49;11;11;
64631;PMS5003;58358;50.936;0.246;2023-04-03T13:55:17;9;8;
64631;PMS5003;58358;50.936;0.246;2023-04-03T14:02:32;7;7;
64631;PMS5003;58358;50.936;0.246;2023-04-03T14:04:58;7;6;
64631;PMS5003;58358;50.936;0.246;2023-04-03T14:07:23;8;8;
64631;PMS5003;58358;50.936;0.246;2023-04-03T14:09:49;6;6;
64631;PMS5003;58358;50.936;0.246;2023-04-03T14:12:15;7;7;
64631;PMS5003;58358;50.936;0.246;2023-04-03T14:14:40;8;8;
64631;PMS5003;58358;50.936;0.246;2023-04-03T14:17:10;10;8;
64631;PMS5003;58358;50.936;0.246;2023-04-03T14:19:33;9;8;
64631;PMS5003;58358;50.936;0.246;2023-04-03T14:21:58;8;7;
64631;PMS5003;58358;50.936;0.246;2023-04-03T14:24:23;5;5;
64631;PMS5003;58358;50.936;0.246;2023-04-03T14:26:50;5;5;
64631;PMS5003;58358;50.936;0.246;2023-04-03T14:29:14;8;8;
64631;PMS5003;58358;50.936;0.246;2023-04-03T14:31:40;8;8;
64631;PMS5003;58358;50.936;0.246;2023-04-03T14:34:06;13;11;
64631;PMS5003;58358;50.936;0.246;2023-04-03T14:36:33;7;7;
64631;PMS5003;58358;50.936;0.246;2023-04-03T14:38:57;8;8;
64631;PMS5003;58358;50.936;0.246;2023-04-03T14:41:23;8;7;
64631;PMS5003;58358;50.936;0.246;2023-04-03T14:43:48;9;8;
64631;PMS5003;58358;50.936;0.246;2023-04-03T14:46:14;10;9;
64631;PMS5003;58358;50.936;0.246;2023-04-03T14:48:39;9;9;
64631;PMS5003;58358;50.936;0.246;2023-04-03T14:51:05;6;6;
64631;PMS5003;58358;50.936;0.246;2023-04-03T14:53:30;7;7;
64631;PMS5003;58358;50.936;0.246;2023-04-03T14:55:56;8;7;
64631;PMS5003;58358;50.936;0.246;2023-04-03T14:58:22;6;6;
64631;PMS5003;58358;50.936;0.246;2023-04-03T15:00:47;6;6;
64631;PMS5003;58358;50.936;0.246;2023-04-03T15:03:14;7;6;
64631;PMS5003;58358;50.936;0.246;2023-04-03T15:05:39;10;7;
64631;PMS5003;58358;50.936;0.246;2023-04-03T15:08:04;7;7;
64631;PMS5003;58358;50.936;0.246;2023-04-03T15:10:30;7;7;
64631;PMS5003;58358;50.936;0.246;2023-04-03T15:12:56;8;6;
64631;PMS5003;58358;50.936;0.246;2023-04-03T15:15:22;8;8;
64631;PMS5003;58358;50.936;0.246;2023-04-03T15:17:55;8;7;
64631;PMS5003;58358;50.936;0.246;2023-04-03T15:20:13;7;7;
64631;PMS5003;58358;50.936;0.246;2023-04-03T15:22:38;9;7;
64631;PMS5003;58358;50.936;0.246;2023-04-03T15:25:04;10;10;
64631;PMS5003;58358;50.936;0.246;2023-04-03T15:27:29;10;9;
64631;PMS5003;58358;50.936;0.246;2023-04-03T15:29:55;9;8;
64631;PMS5003;58358;50.936;0.246;2023-04-03T15:32:21;9;9;
64631;PMS5003;58358;50.936;0.246;2023-04-03T15:34:47;9;9;
64631;PMS5003;58358;50.936;0.246;2023-04-03T15:37:12;9;8;
64631;PMS5003;58358;50.936;0.246;2023-04-03T15:39:38;14;12;
64631;PMS5003;58358;50.936;0.246;2023-04-03T15:42:04;9;9;
64631;PMS5003;58358;50.936;0.246;2023-04-03T15:44:29;10;8;
64631;PMS5003;58358;50.936;0.246;2023-04-03T15:46:55;8;8;
64631;PMS5003;58358;50.936;0.246;2023-04-03T15:49:21;12;12;
64631;PMS5003;58358;50.936;0.246;2023-04-03T15:51:46;12;11;
64631;PMS5003;58358;50.936;0.246;2023-04-03T15:54:12;9;9;
64631;PMS5003;58358;50.936;0.246;2023-04-03T15:56:38;11;11;
64631;PMS5003;58358;50.936;0.246;2023-04-03T15:59:03;9;9;
64631;PMS5003;58358;50.936;0.246;2023-04-03T16:01:29;10;10;
64631;PMS5003;58358;50.936;0.246;2023-04-03T16:03:55;7;7;
64631;PMS5003;58358;50.936;0.246;2023-04-03T16:06:21;9;9;
64631;PMS5003;58358;50.936;0.246;2023-04-03T16:08:46;12;10;
64631;PMS5003;58358;50.936;0.246;2023-04-03T16:11:12;9;9;
64631;PMS5003;58358;50.936;0.246;2023-04-03T16:13:38;8;8;
64631;PMS5003;58358;50.936;0.246;2023-04-03T16:16:03;8;8;
64631;PMS5003;58358;50.936;0.246;2023-04-03T16:18:29;13;13;
64631;PMS5003;58358;50.936;0.246;2023-04-03T16:20:55;9;8;
64631;PMS5003;58358;50.936;0.246;2023-04-03T16:23:21;7;7;
64631;PMS5003;58358;50.936;0.246;2023-04-03T16:25:46;8;7;
64631;PMS5003;58358;50.936;0.246;2023-04-03T16:28:12;8;8;
64631;PMS5003;58358;50.936;0.246;2023-04-03T16:30:37;8;8;
64631;PMS5003;58358;50.936;0.246;2023-04-03T16:33:03;8;8;
64631;PMS5003;58358;50.936;0.246;2023-04-03T16:35:28;6;6;
64631;PMS5003;58358;50.936;0.246;2023-04-03T16:37:54;9;9;
64631;PMS5003;58358;50.936;0.246;2023-04-03T16:40:20;9;7;
64631;PMS5003;58358;50.936;0.246;2023-04-03T16:42:45;10;9;
64631;PMS5003;58358;50.936;0.246;2023-04-03T16:45:11;7;7;
64631;PMS5003;58358;50.936;0.246;2023-04-03T16:47:37;11;11;
64631;PMS5003;58358;50.936;0.246;2023-04-03T16:50:02;10;9;
64631;PMS5003;58358;50.936;0.246;2023-04-03T16:52:28;10;9;
64631;PMS5003;58358;50.936;0.246;2023-04-03T16:54:54;9;9;
64631;PMS5003;58358;50.936;0.246;2023-04-03T16:57:19;7;7;
64631;PMS5003;58358;50.936;0.246;2023-04-03T16:59:45;7;7;
64631;PMS5003;58358;50.936;0.246;2023-04-03T17:02:11;8;8;
64631;PMS5003;58358;50.936;0.246;2023-04-03T17:04:37;8;7;
64631;PMS5003;58358;50.936;0.246;2023-04-03T17:07:02;6;6;
64631;PMS5003;58358;50.936;0.246;2023-04-03T17:09:28;8;8;
64631;PMS5003;58358;50.936;0.246;2023-04-03T17:11:54;6;5;
64631;PMS5003;58358;50.936;0.246;2023-04-03T17:14:20;7;7;